Jacinto, Mississippi
Current Conditions -  °F | °C
As of 6:55 PM on Wednesday 17 Dec 2014 (Local Time) from KCRX Reporting Station
Clear Clear  
Wind Chill:   Ceiling: Unl
Heat Index:   Visibility: 10mi
Dew Point:   Wind: 3mph
Humidity: 76%   Direction: 340°NNW
Pressure: 30.26"   Gusts: NA
Location:  34.7969°N, 88.6031°W
Report Text: KCRX 180055Z AUTO 34003KT 10SM CLR 05/01 A3026 RMK AO2
Loading
Personal Weather Stations






























Interactive Weather Map New forecast layout! Learn more

10-Day Weather Forecast

Advertisements
Track Severe Weather on mobile